sensor_id;sensor_type;location;lat;lon;timestamp;P1;durP1;ratioP1;P2;durP2;ratioP2
71965;SDS011;59836;52.132;5.442;2023-02-15T00:01:08;25.88;;;14.25;;
71965;SDS011;59836;52.132;5.442;2023-02-15T00:03:35;29.00;;;14.93;;
71965;SDS011;59836;52.132;5.442;2023-02-15T00:06:02;25.73;;;14.50;;
71965;SDS011;59836;52.132;5.442;2023-02-15T00:08:30;27.40;;;14.07;;
71965;SDS011;59836;52.132;5.442;2023-02-15T00:11:03;23.27;;;14.20;;
71965;SDS011;59836;52.132;5.442;2023-02-15T00:13:31;23.13;;;13.30;;
71965;SDS011;59836;52.132;5.442;2023-02-15T00:16:10;20.67;;;11.68;;
71965;SDS011;59836;52.132;5.442;2023-02-15T00:18:39;21.83;;;11.60;;
71965;SDS011;59836;52.132;5.442;2023-02-15T00:23:39;17.63;;;10.07;;
71965;SDS011;59836;52.132;5.442;2023-02-15T00:26:08;16.17;;;10.32;;
71965;SDS011;59836;52.132;5.442;2023-02-15T00:28:41;16.05;;;9.73;;
71965;SDS011;59836;52.132;5.442;2023-02-15T00:31:13;21.63;;;11.98;;
71965;SDS011;59836;52.132;5.442;2023-02-15T00:33:41;22.57;;;11.10;;
71965;SDS011;59836;52.132;5.442;2023-02-15T00:36:08;21.70;;;11.25;;
71965;SDS011;59836;52.132;5.442;2023-02-15T00:38:35;25.08;;;11.95;;
71965;SDS011;59836;52.132;5.442;2023-02-15T00:41:05;25.73;;;12.85;;
71965;SDS011;59836;52.132;5.442;2023-02-15T00:43:33;25.05;;;13.45;;
71965;SDS011;59836;52.132;5.442;2023-02-15T00:46:01;18.33;;;11.47;;
71965;SDS011;59836;52.132;5.442;2023-02-15T00:48:37;21.40;;;12.07;;
71965;SDS011;59836;52.132;5.442;2023-02-15T00:51:03;18.30;;;11.00;;
71965;SDS011;59836;52.132;5.442;2023-02-15T00:53:30;22.73;;;12.82;;
71965;SDS011;59836;52.132;5.442;2023-02-15T00:55:58;20.20;;;11.50;;
71965;SDS011;59836;52.132;5.442;2023-02-15T00:58:29;22.70;;;12.10;;
71965;SDS011;59836;52.132;5.442;2023-02-15T01:01:01;20.80;;;12.20;;
71965;SDS011;59836;52.132;5.442;2023-02-15T01:03:30;22.58;;;12.60;;
71965;SDS011;59836;52.132;5.442;2023-02-15T01:05:57;23.25;;;13.07;;
71965;SDS011;59836;52.132;5.442;2023-02-15T01:08:24;22.38;;;11.43;;
71965;SDS011;59836;52.132;5.442;2023-02-15T01:10:51;25.13;;;11.87;;
71965;SDS011;59836;52.132;5.442;2023-02-15T01:13:17;21.27;;;11.98;;
71965;SDS011;59836;52.132;5.442;2023-02-15T01:15:51;22.13;;;12.02;;
71965;SDS011;59836;52.132;5.442;2023-02-15T01:18:19;23.65;;;12.32;;
71965;SDS011;59836;52.132;5.442;2023-02-15T01:20:46;23.05;;;12.55;;
71965;SDS011;59836;52.132;5.442;2023-02-15T01:23:13;20.57;;;11.87;;
71965;SDS011;59836;52.132;5.442;2023-02-15T01:25:40;24.10;;;12.55;;
71965;SDS011;59836;52.132;5.442;2023-02-15T01:28:07;24.90;;;13.43;;
71965;SDS011;59836;52.132;5.442;2023-02-15T01:30:38;20.83;;;11.95;;
71965;SDS011;59836;52.132;5.442;2023-02-15T01:33:04;25.35;;;12.40;;
71965;SDS011;59836;52.132;5.442;2023-02-15T01:35:31;20.10;;;11.90;;
71965;SDS011;59836;52.132;5.442;2023-02-15T01:37:58;21.55;;;11.63;;
71965;SDS011;59836;52.132;5.442;2023-02-15T01:40:25;20.23;;;12.20;;
71965;SDS011;59836;52.132;5.442;2023-02-15T01:42:55;23.98;;;12.45;;
71965;SDS011;59836;52.132;5.442;2023-02-15T01:45:26;22.10;;;11.65;;
71965;SDS011;59836;52.132;5.442;2023-02-15T01:50:59;22.35;;;11.63;;
71965;SDS011;59836;52.132;5.442;2023-02-15T01:53:38;18.08;;;10.40;;
71965;SDS011;59836;52.132;5.442;2023-02-15T01:58:43;21.25;;;11.40;;
71965;SDS011;59836;52.132;5.442;2023-02-15T02:01:14;21.43;;;11.57;;
71965;SDS011;59836;52.132;5.442;2023-02-15T02:03:49;20.52;;;10.05;;
71965;SDS011;59836;52.132;5.442;2023-02-15T02:06:25;20.10;;;10.85;;
71965;SDS011;59836;52.132;5.442;2023-02-15T02:08:55;19.65;;;10.45;;
71965;SDS011;59836;52.132;5.442;2023-02-15T02:11:22;18.08;;;10.35;;
71965;SDS011;59836;52.132;5.442;2023-02-15T02:13:49;17.60;;;9.97;;
71965;SDS011;59836;52.132;5.442;2023-02-15T02:45:46;18.38;;;10.10;;
71965;SDS011;59836;52.132;5.442;2023-02-15T02:48:35;18.88;;;10.63;;
71965;SDS011;59836;52.132;5.442;2023-02-15T02:51:05;19.05;;;10.65;;
71965;SDS011;59836;52.132;5.442;2023-02-15T02:53:31;18.10;;;10.65;;
71965;SDS011;59836;52.132;5.442;2023-02-15T02:56:11;15.83;;;10.17;;
71965;SDS011;59836;52.132;5.442;2023-02-15T02:59:03;18.08;;;10.10;;
71965;SDS011;59836;52.132;5.442;2023-02-15T03:04:45;17.13;;;10.20;;
71965;SDS011;59836;52.132;5.442;2023-02-15T03:07:24;17.60;;;10.00;;
71965;SDS011;59836;52.132;5.442;2023-02-15T03:09:55;18.27;;;9.93;;
71965;SDS011;59836;52.132;5.442;2023-02-15T03:12:31;17.23;;;9.80;;
71965;SDS011;59836;52.132;5.442;2023-02-15T03:15:08;17.20;;;9.38;;
71965;SDS011;59836;52.132;5.442;2023-02-15T03:17:40;18.88;;;10.00;;
71965;SDS011;59836;52.132;5.442;2023-02-15T03:20:14;17.90;;;10.23;;
71965;SDS011;59836;52.132;5.442;2023-02-15T03:22:53;16.60;;;9.70;;
71965;SDS011;59836;52.132;5.442;2023-02-15T03:25:41;17.40;;;9.70;;
71965;SDS011;59836;52.132;5.442;2023-02-15T03:28:54;22.67;;;10.40;;
71965;SDS011;59836;52.132;5.442;2023-02-15T03:34:01;17.95;;;10.05;;
71965;SDS011;59836;52.132;5.442;2023-02-15T03:39:30;17.88;;;9.73;;
71965;SDS011;59836;52.132;5.442;2023-02-15T03:42:04;18.45;;;10.75;;
71965;SDS011;59836;52.132;5.442;2023-02-15T03:44:37;16.05;;;9.65;;
71965;SDS011;59836;52.132;5.442;2023-02-15T03:47:23;18.42;;;10.52;;
71965;SDS011;59836;52.132;5.442;2023-02-15T03:53:09;18.73;;;9.32;;
71965;SDS011;59836;52.132;5.442;2023-02-15T03:55:47;16.75;;;10.13;;
71965;SDS011;59836;52.132;5.442;2023-02-15T03:58:21;20.40;;;10.43;;
71965;SDS011;59836;52.132;5.442;2023-02-15T04:01:53;18.15;;;10.38;;
71965;SDS011;59836;52.132;5.442;2023-02-15T04:04:25;19.17;;;10.60;;
71965;SDS011;59836;52.132;5.442;2023-02-15T04:06:56;17.42;;;10.27;;
71965;SDS011;59836;52.132;5.442;2023-02-15T04:09:23;18.95;;;11.20;;
71965;SDS011;59836;52.132;5.442;2023-02-15T04:17:58;17.40;;;9.90;;
71965;SDS011;59836;52.132;5.442;2023-02-15T04:20:38;15.68;;;10.15;;
71965;SDS011;59836;52.132;5.442;2023-02-15T04:23:31;22.08;;;10.93;;
71965;SDS011;59836;52.132;5.442;2023-02-15T04:26:17;19.65;;;10.10;;
71965;SDS011;59836;52.132;5.442;2023-02-15T04:28:57;18.50;;;10.52;;
71965;SDS011;59836;52.132;5.442;2023-02-15T04:31:35;16.53;;;9.17;;
71965;SDS011;59836;52.132;5.442;2023-02-15T04:34:02;19.00;;;9.90;;
71965;SDS011;59836;52.132;5.442;2023-02-15T04:36:28;21.13;;;10.93;;
71965;SDS011;59836;52.132;5.442;2023-02-15T04:39:12;20.33;;;10.48;;
71965;SDS011;59836;52.132;5.442;2023-02-15T04:44:38;20.27;;;9.60;;
71965;SDS011;59836;52.132;5.442;2023-02-15T04:47:04;17.67;;;10.68;;
71965;SDS011;59836;52.132;5.442;2023-02-15T04:49:31;19.20;;;10.95;;
71965;SDS011;59836;52.132;5.442;2023-02-15T04:51:57;19.17;;;10.55;;
71965;SDS011;59836;52.132;5.442;2023-02-15T04:54:31;17.92;;;11.05;;
71965;SDS011;59836;52.132;5.442;2023-02-15T04:56:58;16.07;;;10.03;;
71965;SDS011;59836;52.132;5.442;2023-02-15T04:59:30;18.00;;;10.15;;
71965;SDS011;59836;52.132;5.442;2023-02-15T05:01:56;20.58;;;10.93;;
71965;SDS011;59836;52.132;5.442;2023-02-15T05:04:24;16.42;;;9.05;;
71965;SDS011;59836;52.132;5.442;2023-02-15T05:06:51;18.83;;;10.02;;
71965;SDS011;59836;52.132;5.442;2023-02-15T05:09:17;17.80;;;9.83;;
71965;SDS011;59836;52.132;5.442;2023-02-15T05:11:46;21.20;;;9.98;;
71965;SDS011;59836;52.132;5.442;2023-02-15T05:14:25;16.60;;;9.50;;
71965;SDS011;59836;52.132;5.442;2023-02-15T05:17:05;16.23;;;9.18;;
71965;SDS011;59836;52.132;5.442;2023-02-15T05:19:42;17.33;;;9.45;;
71965;SDS011;59836;52.132;5.442;2023-02-15T05:22:09;20.63;;;9.07;;
71965;SDS011;59836;52.132;5.442;2023-02-15T05:24:40;15.90;;;9.40;;
71965;SDS011;59836;52.132;5.442;2023-02-15T05:27:25;20.80;;;10.32;;
71965;SDS011;59836;52.132;5.442;2023-02-15T05:30:11;17.73;;;10.55;;
71965;SDS011;59836;52.132;5.442;2023-02-15T05:32:38;17.67;;;10.20;;
71965;SDS011;59836;52.132;5.442;2023-02-15T05:35:14;18.87;;;10.27;;
71965;SDS011;59836;52.132;5.442;2023-02-15T05:40:11;19.13;;;11.18;;
71965;SDS011;59836;52.132;5.442;2023-02-15T05:42:51;16.48;;;9.77;;
71965;SDS011;59836;52.132;5.442;2023-02-15T05:45:29;19.27;;;10.18;;
71965;SDS011;59836;52.132;5.442;2023-02-15T05:47:56;16.37;;;9.17;;
71965;SDS011;59836;52.132;5.442;2023-02-15T05:50:24;18.55;;;9.32;;
71965;SDS011;59836;52.132;5.442;2023-02-15T05:52:51;19.92;;;9.50;;
71965;SDS011;59836;52.132;5.442;2023-02-15T05:55:21;20.20;;;9.73;;
71965;SDS011;59836;52.132;5.442;2023-02-15T05:57:51;18.13;;;9.90;;
71965;SDS011;59836;52.132;5.442;2023-02-15T06:02:57;17.67;;;9.88;;
71965;SDS011;59836;52.132;5.442;2023-02-15T06:11:46;17.92;;;10.50;;
71965;SDS011;59836;52.132;5.442;2023-02-15T06:14:30;18.40;;;10.20;;
71965;SDS011;59836;52.132;5.442;2023-02-15T06:17:01;17.95;;;9.85;;
71965;SDS011;59836;52.132;5.442;2023-02-15T06:19:28;17.70;;;10.00;;
71965;SDS011;59836;52.132;5.442;2023-02-15T06:22:01;18.33;;;9.65;;
71965;SDS011;59836;52.132;5.442;2023-02-15T06:24:27;20.23;;;9.95;;
71965;SDS011;59836;52.132;5.442;2023-02-15T06:26:56;18.23;;;9.10;;
71965;SDS011;59836;52.132;5.442;2023-02-15T06:29:29;17.80;;;9.50;;
71965;SDS011;59836;52.132;5.442;2023-02-15T06:32:01;21.27;;;10.70;;
71965;SDS011;59836;52.132;5.442;2023-02-15T06:34:28;18.70;;;10.10;;
71965;SDS011;59836;52.132;5.442;2023-02-15T06:36:59;19.70;;;10.52;;
71965;SDS011;59836;52.132;5.442;2023-02-15T06:42:03;19.63;;;10.05;;
71965;SDS011;59836;52.132;5.442;2023-02-15T06:44:30;21.35;;;9.65;;
71965;SDS011;59836;52.132;5.442;2023-02-15T06:47:03;17.95;;;9.68;;
71965;SDS011;59836;52.132;5.442;2023-02-15T06:52:33;18.93;;;9.17;;
71965;SDS011;59836;52.132;5.442;2023-02-15T06:54:59;22.00;;;11.02;;
71965;SDS011;59836;52.132;5.442;2023-02-15T06:57:26;22.10;;;10.45;;
71965;SDS011;59836;52.132;5.442;2023-02-15T06:59:52;19.15;;;10.32;;
71965;SDS011;59836;52.132;5.442;2023-02-15T07:02:24;21.23;;;10.38;;
71965;SDS011;59836;52.132;5.442;2023-02-15T07:04:50;21.87;;;11.03;;
71965;SDS011;59836;52.132;5.442;2023-02-15T07:07:17;21.00;;;10.93;;
71965;SDS011;59836;52.132;5.442;2023-02-15T07:09:44;21.52;;;10.63;;
71965;SDS011;59836;52.132;5.442;2023-02-15T07:12:11;18.50;;;9.98;;
71965;SDS011;59836;52.132;5.442;2023-02-15T07:15:08;20.52;;;10.95;;
71965;SDS011;59836;52.132;5.442;2023-02-15T07:17:38;19.33;;;10.33;;
71965;SDS011;59836;52.132;5.442;2023-02-15T07:25:15;20.33;;;11.73;;
71965;SDS011;59836;52.132;5.442;2023-02-15T07:27:42;23.63;;;11.10;;
71965;SDS011;59836;52.132;5.442;2023-02-15T07:30:11;25.30;;;10.53;;
71965;SDS011;59836;52.132;5.442;2023-02-15T07:32:41;22.15;;;11.50;;
71965;SDS011;59836;52.132;5.442;2023-02-15T07:35:30;18.45;;;10.45;;
71965;SDS011;59836;52.132;5.442;2023-02-15T07:37:56;21.65;;;11.15;;
71965;SDS011;59836;52.132;5.442;2023-02-15T07:40:39;19.63;;;10.38;;
71965;SDS011;59836;52.132;5.442;2023-02-15T07:43:06;22.33;;;11.63;;
71965;SDS011;59836;52.132;5.442;2023-02-15T07:45:32;24.25;;;11.38;;
71965;SDS011;59836;52.132;5.442;2023-02-15T07:48:02;21.35;;;10.90;;
71965;SDS011;59836;52.132;5.442;2023-02-15T07:50:29;23.73;;;12.05;;
71965;SDS011;59836;52.132;5.442;2023-02-15T07:52:56;20.80;;;10.98;;
71965;SDS011;59836;52.132;5.442;2023-02-15T07:55:23;22.73;;;11.80;;
71965;SDS011;59836;52.132;5.442;2023-02-15T07:57:50;22.15;;;11.43;;
71965;SDS011;59836;52.132;5.442;2023-02-15T08:00:18;21.23;;;12.30;;
71965;SDS011;59836;52.132;5.442;2023-02-15T08:02:49;22.40;;;11.88;;
71965;SDS011;59836;52.132;5.442;2023-02-15T08:05:37;23.15;;;12.13;;
71965;SDS011;59836;52.132;5.442;2023-02-15T08:08:05;26.40;;;12.23;;
71965;SDS011;59836;52.132;5.442;2023-02-15T08:10:31;25.45;;;13.13;;
71965;SDS011;59836;52.132;5.442;2023-02-15T08:13:17;24.13;;;12.40;;
71965;SDS011;59836;52.132;5.442;2023-02-15T08:15:50;24.70;;;12.10;;
71965;SDS011;59836;52.132;5.442;2023-02-15T08:18:16;23.73;;;12.63;;
71965;SDS011;59836;52.132;5.442;2023-02-15T08:20:48;21.83;;;11.13;;
71965;SDS011;59836;52.132;5.442;2023-02-15T08:23:15;25.88;;;12.45;;
71965;SDS011;59836;52.132;5.442;2023-02-15T08:25:41;26.02;;;13.50;;
71965;SDS011;59836;52.132;5.442;2023-02-15T08:28:08;25.92;;;12.50;;
71965;SDS011;59836;52.132;5.442;2023-02-15T08:30:34;23.38;;;12.82;;
71965;SDS011;59836;52.132;5.442;2023-02-15T08:33:02;23.87;;;12.80;;
71965;SDS011;59836;52.132;5.442;2023-02-15T08:35:28;25.42;;;13.32;;
71965;SDS011;59836;52.132;5.442;2023-02-15T08:37:54;27.33;;;13.23;;
71965;SDS011;59836;52.132;5.442;2023-02-15T08:40:21;26.52;;;14.55;;
71965;SDS011;59836;52.132;5.442;2023-02-15T08:42:47;27.58;;;13.75;;
71965;SDS011;59836;52.132;5.442;2023-02-15T08:45:14;26.93;;;13.63;;
71965;SDS011;59836;52.132;5.442;2023-02-15T08:47:40;30.45;;;13.57;;
71965;SDS011;59836;52.132;5.442;2023-02-15T08:50:07;26.17;;;13.70;;
71965;SDS011;59836;52.132;5.442;2023-02-15T08:52:33;27.65;;;13.85;;
71965;SDS011;59836;52.132;5.442;2023-02-15T08:54:59;30.15;;;14.27;;
71965;SDS011;59836;52.132;5.442;2023-02-15T08:57:26;26.30;;;14.13;;
71965;SDS011;59836;52.132;5.442;2023-02-15T08:59:53;29.17;;;14.82;;
71965;SDS011;59836;52.132;5.442;2023-02-15T09:02:21;29.63;;;14.23;;
71965;SDS011;59836;52.132;5.442;2023-02-15T09:04:47;31.83;;;13.52;;
71965;SDS011;59836;52.132;5.442;2023-02-15T09:07:14;29.45;;;14.80;;
71965;SDS011;59836;52.132;5.442;2023-02-15T09:09:40;33.47;;;15.70;;
71965;SDS011;59836;52.132;5.442;2023-02-15T09:12:07;30.27;;;14.65;;
71965;SDS011;59836;52.132;5.442;2023-02-15T09:14:33;30.95;;;15.52;;
71965;SDS011;59836;52.132;5.442;2023-02-15T09:16:59;26.70;;;14.00;;
71965;SDS011;59836;52.132;5.442;2023-02-15T09:19:27;32.25;;;15.02;;
71965;SDS011;59836;52.132;5.442;2023-02-15T09:21:53;29.33;;;15.50;;
71965;SDS011;59836;52.132;5.442;2023-02-15T09:24:19;27.20;;;15.05;;
71965;SDS011;59836;52.132;5.442;2023-02-15T09:26:47;30.95;;;15.73;;
71965;SDS011;59836;52.132;5.442;2023-02-15T09:29:15;28.42;;;14.18;;
71965;SDS011;59836;52.132;5.442;2023-02-15T09:31:43;29.23;;;14.90;;
71965;SDS011;59836;52.132;5.442;2023-02-15T09:34:12;25.80;;;13.97;;
71965;SDS011;59836;52.132;5.442;2023-02-15T09:36:40;31.60;;;15.02;;
71965;SDS011;59836;52.132;5.442;2023-02-15T09:39:14;28.92;;;15.88;;
71965;SDS011;59836;52.132;5.442;2023-02-15T09:41:50;28.75;;;16.23;;
71965;SDS011;59836;52.132;5.442;2023-02-15T09:44:35;31.65;;;15.90;;
71965;SDS011;59836;52.132;5.442;2023-02-15T09:53:35;29.88;;;14.20;;
71965;SDS011;59836;52.132;5.442;2023-02-15T09:59:04;30.85;;;16.00;;
71965;SDS011;59836;52.132;5.442;2023-02-15T10:02:09;30.80;;;15.57;;
71965;SDS011;59836;52.132;5.442;2023-02-15T10:10:49;34.83;;;16.05;;
71965;SDS011;59836;52.132;5.442;2023-02-15T10:13:53;31.92;;;15.68;;
71965;SDS011;59836;52.132;5.442;2023-02-15T10:19:06;31.95;;;15.80;;
71965;SDS011;59836;52.132;5.442;2023-02-15T10:22:14;35.83;;;17.17;;
71965;SDS011;59836;52.132;5.442;2023-02-15T10:25:07;32.67;;;16.27;;
71965;SDS011;59836;52.132;5.442;2023-02-15T10:27:46;34.15;;;17.48;;
71965;SDS011;59836;52.132;5.442;2023-02-15T10:30:27;33.70;;;17.57;;
71965;SDS011;59836;52.132;5.442;2023-02-15T10:33:04;31.52;;;17.02;;
71965;SDS011;59836;52.132;5.442;2023-02-15T10:35:43;30.73;;;16.70;;
71965;SDS011;59836;52.132;5.442;2023-02-15T10:38:42;35.03;;;16.98;;
71965;SDS011;59836;52.132;5.442;2023-02-15T10:41:31;35.72;;;17.00;;
71965;SDS011;59836;52.132;5.442;2023-02-15T10:44:23;36.00;;;17.03;;
71965;SDS011;59836;52.132;5.442;2023-02-15T10:53:18;31.15;;;16.20;;
71965;SDS011;59836;52.132;5.442;2023-02-15T10:59:06;33.30;;;16.57;;
71965;SDS011;59836;52.132;5.442;2023-02-15T11:04:39;34.42;;;16.25;;
71965;SDS011;59836;52.132;5.442;2023-02-15T11:07:14;32.08;;;15.85;;
71965;SDS011;59836;52.132;5.442;2023-02-15T11:09:56;29.05;;;16.10;;
71965;SDS011;59836;52.132;5.442;2023-02-15T11:12:31;31.67;;;16.20;;
71965;SDS011;59836;52.132;5.442;2023-02-15T11:15:04;31.38;;;16.40;;
71965;SDS011;59836;52.132;5.442;2023-02-15T11:17:57;35.97;;;17.77;;
71965;SDS011;59836;52.132;5.442;2023-02-15T11:20:33;34.70;;;15.95;;
71965;SDS011;59836;52.132;5.442;2023-02-15T11:23:07;33.35;;;16.45;;
71965;SDS011;59836;52.132;5.442;2023-02-15T11:25:42;32.60;;;15.87;;
71965;SDS011;59836;52.132;5.442;2023-02-15T11:28:20;33.75;;;16.75;;
71965;SDS011;59836;52.132;5.442;2023-02-15T11:30:54;30.83;;;16.42;;
71965;SDS011;59836;52.132;5.442;2023-02-15T11:33:24;35.28;;;15.95;;
71965;SDS011;59836;52.132;5.442;2023-02-15T11:36:00;30.65;;;16.13;;
71965;SDS011;59836;52.132;5.442;2023-02-15T11:38:32;34.60;;;16.60;;
71965;SDS011;59836;52.132;5.442;2023-02-15T11:41:03;33.63;;;15.88;;
71965;SDS011;59836;52.132;5.442;2023-02-15T11:43:38;32.20;;;16.90;;
71965;SDS011;59836;52.132;5.442;2023-02-15T11:46:11;35.72;;;16.75;;
71965;SDS011;59836;52.132;5.442;2023-02-15T11:48:41;30.20;;;15.98;;
71965;SDS011;59836;52.132;5.442;2023-02-15T11:51:09;36.33;;;18.80;;
71965;SDS011;59836;52.132;5.442;2023-02-15T11:53:40;36.28;;;17.10;;
71965;SDS011;59836;52.132;5.442;2023-02-15T11:56:13;33.42;;;16.48;;
71965;SDS011;59836;52.132;5.442;2023-02-15T11:59:04;37.70;;;18.13;;
71965;SDS011;59836;52.132;5.442;2023-02-15T12:01:55;33.30;;;17.08;;
71965;SDS011;59836;52.132;5.442;2023-02-15T12:04:24;32.23;;;16.27;;
71965;SDS011;59836;52.132;5.442;2023-02-15T12:07:09;34.88;;;16.17;;
71965;SDS011;59836;52.132;5.442;2023-02-15T12:13:14;36.35;;;17.25;;
71965;SDS011;59836;52.132;5.442;2023-02-15T12:15:43;32.13;;;16.58;;
71965;SDS011;59836;52.132;5.442;2023-02-15T12:21:04;34.72;;;17.25;;
71965;SDS011;59836;52.132;5.442;2023-02-15T12:23:47;32.72;;;17.30;;
71965;SDS011;59836;52.132;5.442;2023-02-15T12:28:53;35.03;;;16.40;;
71965;SDS011;59836;52.132;5.442;2023-02-15T12:31:37;31.90;;;15.40;;
71965;SDS011;59836;52.132;5.442;2023-02-15T12:34:11;33.30;;;15.57;;
71965;SDS011;59836;52.132;5.442;2023-02-15T12:36:46;33.35;;;16.50;;
71965;SDS011;59836;52.132;5.442;2023-02-15T12:39:18;33.30;;;16.35;;
71965;SDS011;59836;52.132;5.442;2023-02-15T12:44:22;34.17;;;17.23;;
71965;SDS011;59836;52.132;5.442;2023-02-15T12:49:30;30.88;;;16.40;;
71965;SDS011;59836;52.132;5.442;2023-02-15T12:52:03;33.78;;;17.52;;
71965;SDS011;59836;52.132;5.442;2023-02-15T12:54:49;37.17;;;17.33;;
71965;SDS011;59836;52.132;5.442;2023-02-15T12:57:32;33.27;;;16.43;;
71965;SDS011;59836;52.132;5.442;2023-02-15T13:00:06;34.33;;;17.10;;
71965;SDS011;59836;52.132;5.442;2023-02-15T13:05:17;34.85;;;17.40;;
71965;SDS011;59836;52.132;5.442;2023-02-15T13:07:50;33.95;;;17.25;;
71965;SDS011;59836;52.132;5.442;2023-02-15T13:10:27;34.97;;;17.63;;
71965;SDS011;59836;52.132;5.442;2023-02-15T13:12:57;34.13;;;16.77;;
71965;SDS011;59836;52.132;5.442;2023-02-15T13:15:25;32.53;;;17.80;;
71965;SDS011;59836;52.132;5.442;2023-02-15T13:18:03;32.45;;;17.25;;
71965;SDS011;59836;52.132;5.442;2023-02-15T13:20:34;34.08;;;17.80;;
71965;SDS011;59836;52.132;5.442;2023-02-15T13:23:08;33.77;;;17.30;;
71965;SDS011;59836;52.132;5.442;2023-02-15T13:25:54;35.47;;;17.80;;
71965;SDS011;59836;52.132;5.442;2023-02-15T13:28:31;36.67;;;18.23;;
71965;SDS011;59836;52.132;5.442;2023-02-15T13:31:09;35.90;;;16.67;;
71965;SDS011;59836;52.132;5.442;2023-02-15T13:33:39;36.75;;;17.95;;
71965;SDS011;59836;52.132;5.442;2023-02-15T13:38:58;32.40;;;17.58;;
71965;SDS011;59836;52.132;5.442;2023-02-15T13:45:13;34.95;;;18.00;;
71965;SDS011;59836;52.132;5.442;2023-02-15T13:54:00;36.22;;;18.27;;
71965;SDS011;59836;52.132;5.442;2023-02-15T13:59:52;35.97;;;16.90;;
71965;SDS011;59836;52.132;5.442;2023-02-15T14:08:22;36.72;;;18.88;;
71965;SDS011;59836;52.132;5.442;2023-02-15T14:11:18;32.17;;;18.40;;
71965;SDS011;59836;52.132;5.442;2023-02-15T14:13:58;35.08;;;17.98;;
71965;SDS011;59836;52.132;5.442;2023-02-15T14:16:53;33.97;;;17.42;;
71965;SDS011;59836;52.132;5.442;2023-02-15T14:19:50;36.77;;;17.70;;
71965;SDS011;59836;52.132;5.442;2023-02-15T14:22:30;32.55;;;16.52;;
71965;SDS011;59836;52.132;5.442;2023-02-15T14:30:49;37.30;;;18.42;;
71965;SDS011;59836;52.132;5.442;2023-02-15T14:33:28;36.97;;;18.70;;
71965;SDS011;59836;52.132;5.442;2023-02-15T14:36:01;38.22;;;18.92;;
71965;SDS011;59836;52.132;5.442;2023-02-15T14:41:18;36.70;;;18.58;;
71965;SDS011;59836;52.132;5.442;2023-02-15T14:49:22;38.60;;;19.35;;
71965;SDS011;59836;52.132;5.442;2023-02-15T14:57:32;38.50;;;18.77;;
71965;SDS011;59836;52.132;5.442;2023-02-15T15:05:20;36.83;;;18.15;;
71965;SDS011;59836;52.132;5.442;2023-02-15T15:07:51;33.95;;;17.13;;
71965;SDS011;59836;52.132;5.442;2023-02-15T15:12:50;40.10;;;17.87;;
71965;SDS011;59836;52.132;5.442;2023-02-15T15:17:55;38.55;;;18.75;;
71965;SDS011;59836;52.132;5.442;2023-02-15T15:23:38;36.25;;;18.15;;
71965;SDS011;59836;52.132;5.442;2023-02-15T15:26:22;32.73;;;17.50;;
71965;SDS011;59836;52.132;5.442;2023-02-15T15:31:28;35.15;;;18.75;;
71965;SDS011;59836;52.132;5.442;2023-02-15T15:34:17;32.58;;;15.77;;
71965;SDS011;59836;52.132;5.442;2023-02-15T15:36:54;33.15;;;16.90;;
71965;SDS011;59836;52.132;5.442;2023-02-15T15:45:23;33.67;;;16.80;;
71965;SDS011;59836;52.132;5.442;2023-02-15T15:48:05;32.45;;;16.25;;
71965;SDS011;59836;52.132;5.442;2023-02-15T15:50:43;32.17;;;15.88;;
71965;SDS011;59836;52.132;5.442;2023-02-15T15:53:16;32.77;;;16.13;;
71965;SDS011;59836;52.132;5.442;2023-02-15T15:55:47;32.53;;;16.60;;
71965;SDS011;59836;52.132;5.442;2023-02-15T15:58:16;36.22;;;17.92;;
71965;SDS011;59836;52.132;5.442;2023-02-15T16:00:52;30.80;;;16.17;;
71965;SDS011;59836;52.132;5.442;2023-02-15T16:03:25;36.63;;;18.10;;
71965;SDS011;59836;52.132;5.442;2023-02-15T16:05:53;32.07;;;17.23;;
71965;SDS011;59836;52.132;5.442;2023-02-15T16:11:34;35.75;;;17.60;;
71965;SDS011;59836;52.132;5.442;2023-02-15T16:17:17;33.15;;;17.45;;
71965;SDS011;59836;52.132;5.442;2023-02-15T16:19:47;35.63;;;17.20;;
71965;SDS011;59836;52.132;5.442;2023-02-15T16:22:21;35.85;;;17.38;;
71965;SDS011;59836;52.132;5.442;2023-02-15T16:24:57;37.75;;;18.73;;
71965;SDS011;59836;52.132;5.442;2023-02-15T16:27:33;37.95;;;19.15;;
71965;SDS011;59836;52.132;5.442;2023-02-15T16:30:24;35.20;;;17.58;;
71965;SDS011;59836;52.132;5.442;2023-02-15T16:33:10;36.50;;;17.63;;
71965;SDS011;59836;52.132;5.442;2023-02-15T16:35:52;39.15;;;18.88;;
71965;SDS011;59836;52.132;5.442;2023-02-15T16:38:30;33.95;;;18.08;;
71965;SDS011;59836;52.132;5.442;2023-02-15T16:41:31;37.85;;;17.67;;
71965;SDS011;59836;52.132;5.442;2023-02-15T16:43:58;33.33;;;18.25;;
71965;SDS011;59836;52.132;5.442;2023-02-15T16:46:36;31.47;;;16.97;;
71965;SDS011;59836;52.132;5.442;2023-02-15T16:52:00;37.25;;;18.20;;
71965;SDS011;59836;52.132;5.442;2023-02-15T16:54:31;35.15;;;18.88;;
71965;SDS011;59836;52.132;5.442;2023-02-15T16:56:58;42.42;;;19.73;;
71965;SDS011;59836;52.132;5.442;2023-02-15T16:59:33;39.33;;;17.53;;
71965;SDS011;59836;52.132;5.442;2023-02-15T17:02:05;39.40;;;19.77;;
71965;SDS011;59836;52.132;5.442;2023-02-15T17:05:01;35.33;;;18.08;;
71965;SDS011;59836;52.132;5.442;2023-02-15T17:07:34;42.80;;;20.73;;
71965;SDS011;59836;52.132;5.442;2023-02-15T17:10:25;45.58;;;22.77;;
71965;SDS011;59836;52.132;5.442;2023-02-15T17:12:54;44.00;;;22.30;;
71965;SDS011;59836;52.132;5.442;2023-02-15T17:15:32;44.03;;;22.15;;
71965;SDS011;59836;52.132;5.442;2023-02-15T17:18:22;42.53;;;21.42;;
71965;SDS011;59836;52.132;5.442;2023-02-15T17:20:49;41.65;;;20.73;;
71965;SDS011;59836;52.132;5.442;2023-02-15T17:23:21;42.55;;;20.75;;
71965;SDS011;59836;52.132;5.442;2023-02-15T17:25:49;41.80;;;21.27;;
71965;SDS011;59836;52.132;5.442;2023-02-15T17:28:19;39.55;;;19.58;;
71965;SDS011;59836;52.132;5.442;2023-02-15T17:30:49;38.13;;;19.98;;
71965;SDS011;59836;52.132;5.442;2023-02-15T17:33:20;50.70;;;23.77;;
71965;SDS011;59836;52.132;5.442;2023-02-15T17:36:16;47.65;;;23.55;;
71965;SDS011;59836;52.132;5.442;2023-02-15T17:41:48;46.85;;;20.52;;
71965;SDS011;59836;52.132;5.442;2023-02-15T17:44:33;51.42;;;24.13;;
71965;SDS011;59836;52.132;5.442;2023-02-15T17:46:59;50.55;;;22.20;;
71965;SDS011;59836;52.132;5.442;2023-02-15T17:49:26;43.03;;;20.90;;
71965;SDS011;59836;52.132;5.442;2023-02-15T17:52:00;41.40;;;20.40;;
71965;SDS011;59836;52.132;5.442;2023-02-15T17:54:27;56.75;;;25.90;;
71965;SDS011;59836;52.132;5.442;2023-02-15T17:57:17;54.35;;;25.25;;
71965;SDS011;59836;52.132;5.442;2023-02-15T17:59:43;45.78;;;23.67;;
71965;SDS011;59836;52.132;5.442;2023-02-15T18:02:35;42.35;;;20.85;;
71965;SDS011;59836;52.132;5.442;2023-02-15T18:05:27;42.10;;;19.47;;
71965;SDS011;59836;52.132;5.442;2023-02-15T18:11:18;52.22;;;24.70;;
71965;SDS011;59836;52.132;5.442;2023-02-15T18:14:09;47.85;;;22.67;;
71965;SDS011;59836;52.132;5.442;2023-02-15T18:16:37;44.60;;;22.48;;
71965;SDS011;59836;52.132;5.442;2023-02-15T18:19:16;42.30;;;20.47;;
71965;SDS011;59836;52.132;5.442;2023-02-15T18:21:50;40.33;;;19.98;;
71965;SDS011;59836;52.132;5.442;2023-02-15T18:24:19;47.00;;;21.42;;
71965;SDS011;59836;52.132;5.442;2023-02-15T18:29:30;41.42;;;20.58;;
71965;SDS011;59836;52.132;5.442;2023-02-15T18:32:02;40.73;;;19.87;;